sensor_id;sensor_type;location;lat;lon;timestamp;P1;durP1;ratioP1;P2;durP2;ratioP2
72761;SDS011;60886;55.034;73.150;2022-12-07T00:01:42;17.87;;;6.23;;
72761;SDS011;60886;55.034;73.150;2022-12-07T00:04:12;24.50;;;6.93;;
72761;SDS011;60886;55.034;73.150;2022-12-07T00:06:41;17.20;;;6.43;;
72761;SDS011;60886;55.034;73.150;2022-12-07T00:09:16;15.18;;;5.78;;
72761;SDS011;60886;55.034;73.150;2022-12-07T00:11:43;20.02;;;7.00;;
72761;SDS011;60886;55.034;73.150;2022-12-07T00:14:11;17.80;;;8.00;;
72761;SDS011;60886;55.034;73.150;2022-12-07T00:16:39;14.55;;;5.70;;
72761;SDS011;60886;55.034;73.150;2022-12-07T00:19:06;18.15;;;6.10;;
72761;SDS011;60886;55.034;73.150;2022-12-07T00:21:34;16.85;;;5.93;;
72761;SDS011;60886;55.034;73.150;2022-12-07T00:24:01;20.75;;;7.25;;
72761;SDS011;60886;55.034;73.150;2022-12-07T00:26:34;18.77;;;5.97;;
72761;SDS011;60886;55.034;73.150;2022-12-07T00:29:04;18.33;;;6.63;;
72761;SDS011;60886;55.034;73.150;2022-12-07T00:31:33;22.88;;;6.75;;
72761;SDS011;60886;55.034;73.150;2022-12-07T00:34:13;15.10;;;6.25;;
72761;SDS011;60886;55.034;73.150;2022-12-07T00:36:41;15.52;;;5.55;;
72761;SDS011;60886;55.034;73.150;2022-12-07T00:39:09;15.63;;;6.40;;
72761;SDS011;60886;55.034;73.150;2022-12-07T00:41:36;16.15;;;6.63;;
72761;SDS011;60886;55.034;73.150;2022-12-07T00:44:02;18.60;;;6.10;;
72761;SDS011;60886;55.034;73.150;2022-12-07T00:46:29;17.25;;;5.72;;
72761;SDS011;60886;55.034;73.150;2022-12-07T00:48:56;17.33;;;6.32;;
72761;SDS011;60886;55.034;73.150;2022-12-07T00:51:25;18.53;;;6.80;;
72761;SDS011;60886;55.034;73.150;2022-12-07T00:53:56;17.50;;;6.70;;
72761;SDS011;60886;55.034;73.150;2022-12-07T00:56:27;17.35;;;5.97;;
72761;SDS011;60886;55.034;73.150;2022-12-07T00:59:00;12.20;;;5.35;;
72761;SDS011;60886;55.034;73.150;2022-12-07T01:01:28;22.63;;;6.82;;
72761;SDS011;60886;55.034;73.150;2022-12-07T01:03:57;18.27;;;6.27;;
72761;SDS011;60886;55.034;73.150;2022-12-07T01:06:35;17.83;;;6.63;;
72761;SDS011;60886;55.034;73.150;2022-12-07T01:09:01;16.40;;;6.15;;
72761;SDS011;60886;55.034;73.150;2022-12-07T01:11:29;16.85;;;6.10;;
72761;SDS011;60886;55.034;73.150;2022-12-07T01:13:56;17.45;;;6.93;;
72761;SDS011;60886;55.034;73.150;2022-12-07T01:16:25;20.43;;;6.13;;
72761;SDS011;60886;55.034;73.150;2022-12-07T01:18:53;15.18;;;5.72;;
72761;SDS011;60886;55.034;73.150;2022-12-07T01:21:23;17.98;;;5.57;;
72761;SDS011;60886;55.034;73.150;2022-12-07T01:23:58;18.90;;;5.95;;
72761;SDS011;60886;55.034;73.150;2022-12-07T01:26:28;15.50;;;5.97;;
72761;SDS011;60886;55.034;73.150;2022-12-07T01:28:54;27.57;;;7.47;;
72761;SDS011;60886;55.034;73.150;2022-12-07T01:31:22;18.90;;;6.32;;
72761;SDS011;60886;55.034;73.150;2022-12-07T01:33:51;14.10;;;5.70;;
72761;SDS011;60886;55.034;73.150;2022-12-07T01:36:19;17.55;;;6.15;;
72761;SDS011;60886;55.034;73.150;2022-12-07T01:38:50;17.00;;;6.18;;
72761;SDS011;60886;55.034;73.150;2022-12-07T01:41:22;16.57;;;6.20;;
72761;SDS011;60886;55.034;73.150;2022-12-07T01:46:49;15.18;;;6.03;;
72761;SDS011;60886;55.034;73.150;2022-12-07T01:51:58;16.20;;;4.97;;
72761;SDS011;60886;55.034;73.150;2022-12-07T01:54:35;19.10;;;6.20;;
72761;SDS011;60886;55.034;73.150;2022-12-07T01:57:03;17.85;;;6.32;;
72761;SDS011;60886;55.034;73.150;2022-12-07T01:59:37;16.30;;;6.25;;
72761;SDS011;60886;55.034;73.150;2022-12-07T02:05:53;22.55;;;6.20;;
72761;SDS011;60886;55.034;73.150;2022-12-07T02:08:21;17.53;;;5.73;;
72761;SDS011;60886;55.034;73.150;2022-12-07T02:10:48;20.30;;;7.07;;
72761;SDS011;60886;55.034;73.150;2022-12-07T02:13:19;17.33;;;6.00;;
72761;SDS011;60886;55.034;73.150;2022-12-07T02:21:39;17.37;;;6.90;;
72761;SDS011;60886;55.034;73.150;2022-12-07T02:32:51;17.92;;;6.05;;
72761;SDS011;60886;55.034;73.150;2022-12-07T02:35:39;20.67;;;6.80;;
72761;SDS011;60886;55.034;73.150;2022-12-07T02:38:13;18.17;;;6.65;;
72761;SDS011;60886;55.034;73.150;2022-12-07T02:41:13;16.98;;;5.82;;
72761;SDS011;60886;55.034;73.150;2022-12-07T02:44:04;21.15;;;6.82;;
72761;SDS011;60886;55.034;73.150;2022-12-07T02:46:36;21.05;;;5.95;;
72761;SDS011;60886;55.034;73.150;2022-12-07T02:49:07;15.80;;;6.10;;
72761;SDS011;60886;55.034;73.150;2022-12-07T02:51:38;13.43;;;5.35;;
72761;SDS011;60886;55.034;73.150;2022-12-07T02:54:12;19.63;;;7.07;;
72761;SDS011;60886;55.034;73.150;2022-12-07T02:59:11;17.58;;;6.45;;
72761;SDS011;60886;55.034;73.150;2022-12-07T03:04:40;15.93;;;6.18;;
72761;SDS011;60886;55.034;73.150;2022-12-07T03:07:19;18.63;;;6.07;;
72761;SDS011;60886;55.034;73.150;2022-12-07T03:15:38;15.90;;;6.33;;
72761;SDS011;60886;55.034;73.150;2022-12-07T03:18:50;14.27;;;5.72;;
72761;SDS011;60886;55.034;73.150;2022-12-07T03:21:47;18.42;;;6.45;;
72761;SDS011;60886;55.034;73.150;2022-12-07T03:24:25;18.45;;;6.28;;
72761;SDS011;60886;55.034;73.150;2022-12-07T03:29:48;14.67;;;5.87;;
72761;SDS011;60886;55.034;73.150;2022-12-07T03:37:38;16.05;;;5.72;;
72761;SDS011;60886;55.034;73.150;2022-12-07T03:40:15;18.25;;;5.80;;
72761;SDS011;60886;55.034;73.150;2022-12-07T03:42:54;20.67;;;6.17;;
72761;SDS011;60886;55.034;73.150;2022-12-07T03:45:23;19.75;;;6.35;;
72761;SDS011;60886;55.034;73.150;2022-12-07T03:51:20;12.82;;;5.13;;
72761;SDS011;60886;55.034;73.150;2022-12-07T03:53:54;16.52;;;6.68;;
72761;SDS011;60886;55.034;73.150;2022-12-07T03:56:26;22.03;;;7.27;;
72761;SDS011;60886;55.034;73.150;2022-12-07T03:58:54;20.63;;;7.03;;
72761;SDS011;60886;55.034;73.150;2022-12-07T04:01:22;19.25;;;7.13;;
72761;SDS011;60886;55.034;73.150;2022-12-07T04:03:54;20.48;;;7.15;;
72761;SDS011;60886;55.034;73.150;2022-12-07T04:06:21;21.08;;;7.53;;
72761;SDS011;60886;55.034;73.150;2022-12-07T04:08:48;16.77;;;6.40;;
72761;SDS011;60886;55.034;73.150;2022-12-07T04:11:14;19.75;;;7.97;;
72761;SDS011;60886;55.034;73.150;2022-12-07T04:13:40;27.35;;;7.82;;
72761;SDS011;60886;55.034;73.150;2022-12-07T04:16:30;21.15;;;6.03;;
72761;SDS011;60886;55.034;73.150;2022-12-07T04:19:02;17.75;;;7.10;;
72761;SDS011;60886;55.034;73.150;2022-12-07T04:21:28;25.03;;;7.20;;
72761;SDS011;60886;55.034;73.150;2022-12-07T04:23:55;18.55;;;7.07;;
72761;SDS011;60886;55.034;73.150;2022-12-07T04:26:26;19.75;;;6.65;;
72761;SDS011;60886;55.034;73.150;2022-12-07T04:28:53;25.40;;;6.75;;
72761;SDS011;60886;55.034;73.150;2022-12-07T04:31:20;22.15;;;7.10;;
72761;SDS011;60886;55.034;73.150;2022-12-07T04:33:46;19.20;;;6.57;;
72761;SDS011;60886;55.034;73.150;2022-12-07T04:36:13;16.27;;;6.10;;
72761;SDS011;60886;55.034;73.150;2022-12-07T04:38:43;19.45;;;6.43;;
72761;SDS011;60886;55.034;73.150;2022-12-07T04:41:10;26.05;;;7.20;;
72761;SDS011;60886;55.034;73.150;2022-12-07T04:43:41;18.50;;;6.28;;
72761;SDS011;60886;55.034;73.150;2022-12-07T04:46:07;18.80;;;5.80;;
72761;SDS011;60886;55.034;73.150;2022-12-07T04:48:33;17.27;;;5.78;;
72761;SDS011;60886;55.034;73.150;2022-12-07T04:50:59;18.92;;;6.53;;
72761;SDS011;60886;55.034;73.150;2022-12-07T04:53:26;14.23;;;5.35;;
72761;SDS011;60886;55.034;73.150;2022-12-07T04:55:52;18.35;;;5.65;;
72761;SDS011;60886;55.034;73.150;2022-12-07T04:58:24;19.17;;;6.10;;
72761;SDS011;60886;55.034;73.150;2022-12-07T05:00:53;16.85;;;5.43;;
72761;SDS011;60886;55.034;73.150;2022-12-07T05:03:30;16.85;;;6.22;;
72761;SDS011;60886;55.034;73.150;2022-12-07T05:06:02;14.70;;;5.47;;
72761;SDS011;60886;55.034;73.150;2022-12-07T05:08:39;17.45;;;6.10;;
72761;SDS011;60886;55.034;73.150;2022-12-07T05:11:06;17.17;;;6.13;;
72761;SDS011;60886;55.034;73.150;2022-12-07T05:13:37;11.40;;;4.22;;
72761;SDS011;60886;55.034;73.150;2022-12-07T05:16:14;14.68;;;4.35;;
72761;SDS011;60886;55.034;73.150;2022-12-07T05:18:40;13.02;;;4.93;;
72761;SDS011;60886;55.034;73.150;2022-12-07T05:21:06;16.90;;;4.95;;
72761;SDS011;60886;55.034;73.150;2022-12-07T05:23:43;21.17;;;6.30;;
72761;SDS011;60886;55.034;73.150;2022-12-07T05:26:09;15.90;;;5.95;;
72761;SDS011;60886;55.034;73.150;2022-12-07T05:28:42;21.00;;;6.57;;
72761;SDS011;60886;55.034;73.150;2022-12-07T05:31:08;19.08;;;5.75;;
72761;SDS011;60886;55.034;73.150;2022-12-07T05:33:40;21.77;;;5.63;;
72761;SDS011;60886;55.034;73.150;2022-12-07T05:36:16;22.57;;;5.90;;
72761;SDS011;60886;55.034;73.150;2022-12-07T05:38:42;13.38;;;4.22;;
72761;SDS011;60886;55.034;73.150;2022-12-07T05:41:12;14.02;;;3.78;;
72761;SDS011;60886;55.034;73.150;2022-12-07T05:44:00;14.55;;;4.57;;
72761;SDS011;60886;55.034;73.150;2022-12-07T05:46:26;12.65;;;3.88;;
72761;SDS011;60886;55.034;73.150;2022-12-07T05:48:52;13.17;;;4.50;;
72761;SDS011;60886;55.034;73.150;2022-12-07T05:51:19;16.30;;;4.40;;
72761;SDS011;60886;55.034;73.150;2022-12-07T05:53:45;17.92;;;4.90;;
72761;SDS011;60886;55.034;73.150;2022-12-07T05:56:16;16.48;;;4.10;;
72761;SDS011;60886;55.034;73.150;2022-12-07T05:58:47;13.45;;;5.35;;
72761;SDS011;60886;55.034;73.150;2022-12-07T06:01:31;17.37;;;4.17;;
72761;SDS011;60886;55.034;73.150;2022-12-07T06:03:58;13.85;;;4.47;;
72761;SDS011;60886;55.034;73.150;2022-12-07T06:06:35;12.90;;;3.80;;
72761;SDS011;60886;55.034;73.150;2022-12-07T06:09:01;18.35;;;4.28;;
72761;SDS011;60886;55.034;73.150;2022-12-07T06:11:28;18.05;;;3.85;;
72761;SDS011;60886;55.034;73.150;2022-12-07T06:14:20;13.93;;;5.17;;
72761;SDS011;60886;55.034;73.150;2022-12-07T06:16:46;18.98;;;4.78;;
72761;SDS011;60886;55.034;73.150;2022-12-07T06:19:13;12.10;;;4.20;;
72761;SDS011;60886;55.034;73.150;2022-12-07T06:21:44;12.32;;;3.97;;
72761;SDS011;60886;55.034;73.150;2022-12-07T06:24:11;13.68;;;3.60;;
72761;SDS011;60886;55.034;73.150;2022-12-07T06:26:38;12.93;;;4.00;;
72761;SDS011;60886;55.034;73.150;2022-12-07T06:29:05;9.32;;;3.38;;
72761;SDS011;60886;55.034;73.150;2022-12-07T06:31:32;10.55;;;3.95;;
72761;SDS011;60886;55.034;73.150;2022-12-07T06:33:59;15.93;;;3.88;;
72761;SDS011;60886;55.034;73.150;2022-12-07T06:36:30;14.23;;;4.00;;
72761;SDS011;60886;55.034;73.150;2022-12-07T06:38:56;11.20;;;3.80;;
72761;SDS011;60886;55.034;73.150;2022-12-07T06:41:23;12.63;;;3.55;;
72761;SDS011;60886;55.034;73.150;2022-12-07T06:43:50;19.27;;;4.63;;
72761;SDS011;60886;55.034;73.150;2022-12-07T06:46:16;16.23;;;4.38;;
72761;SDS011;60886;55.034;73.150;2022-12-07T06:48:43;15.80;;;4.38;;
72761;SDS011;60886;55.034;73.150;2022-12-07T06:51:09;11.80;;;3.40;;
72761;SDS011;60886;55.034;73.150;2022-12-07T06:53:37;14.27;;;4.78;;
72761;SDS011;60886;55.034;73.150;2022-12-07T06:56:04;13.48;;;4.72;;
72761;SDS011;60886;55.034;73.150;2022-12-07T06:58:39;13.32;;;4.43;;
72761;SDS011;60886;55.034;73.150;2022-12-07T07:01:10;19.02;;;4.53;;
72761;SDS011;60886;55.034;73.150;2022-12-07T07:03:40;13.10;;;3.40;;
72761;SDS011;60886;55.034;73.150;2022-12-07T07:06:07;14.70;;;3.75;;
72761;SDS011;60886;55.034;73.150;2022-12-07T07:08:34;8.40;;;2.85;;
72761;SDS011;60886;55.034;73.150;2022-12-07T07:11:02;9.45;;;3.30;;
72761;SDS011;60886;55.034;73.150;2022-12-07T07:13:29;13.25;;;3.72;;
72761;SDS011;60886;55.034;73.150;2022-12-07T07:15:56;16.17;;;4.17;;
72761;SDS011;60886;55.034;73.150;2022-12-07T07:18:23;14.63;;;4.45;;
72761;SDS011;60886;55.034;73.150;2022-12-07T07:20:50;15.00;;;4.30;;
72761;SDS011;60886;55.034;73.150;2022-12-07T07:23:26;14.13;;;4.15;;
72761;SDS011;60886;55.034;73.150;2022-12-07T07:25:53;11.40;;;4.03;;
72761;SDS011;60886;55.034;73.150;2022-12-07T07:28:19;15.60;;;3.80;;
72761;SDS011;60886;55.034;73.150;2022-12-07T07:30:45;11.90;;;2.47;;
72761;SDS011;60886;55.034;73.150;2022-12-07T07:33:12;13.18;;;3.38;;
72761;SDS011;60886;55.034;73.150;2022-12-07T07:35:38;7.55;;;2.22;;
72761;SDS011;60886;55.034;73.150;2022-12-07T07:38:05;9.15;;;2.60;;
72761;SDS011;60886;55.034;73.150;2022-12-07T07:40:32;10.13;;;2.90;;
72761;SDS011;60886;55.034;73.150;2022-12-07T07:43:00;11.95;;;3.15;;
72761;SDS011;60886;55.034;73.150;2022-12-07T07:45:26;14.57;;;3.83;;
72761;SDS011;60886;55.034;73.150;2022-12-07T07:47:53;15.27;;;3.05;;
72761;SDS011;60886;55.034;73.150;2022-12-07T07:50:19;11.38;;;3.15;;
72761;SDS011;60886;55.034;73.150;2022-12-07T07:52:52;8.90;;;2.67;;
72761;SDS011;60886;55.034;73.150;2022-12-07T07:55:19;11.32;;;3.13;;
72761;SDS011;60886;55.034;73.150;2022-12-07T07:57:45;11.15;;;2.75;;
72761;SDS011;60886;55.034;73.150;2022-12-07T08:00:12;8.50;;;2.50;;
72761;SDS011;60886;55.034;73.150;2022-12-07T08:02:40;11.90;;;2.63;;
72761;SDS011;60886;55.034;73.150;2022-12-07T08:05:08;12.67;;;2.80;;
72761;SDS011;60886;55.034;73.150;2022-12-07T08:07:36;12.48;;;2.70;;
72761;SDS011;60886;55.034;73.150;2022-12-07T08:10:02;12.57;;;2.92;;
72761;SDS011;60886;55.034;73.150;2022-12-07T08:12:29;11.30;;;2.75;;
72761;SDS011;60886;55.034;73.150;2022-12-07T08:14:56;10.90;;;3.20;;
72761;SDS011;60886;55.034;73.150;2022-12-07T08:17:22;13.93;;;2.53;;
72761;SDS011;60886;55.034;73.150;2022-12-07T08:19:54;10.57;;;2.65;;
72761;SDS011;60886;55.034;73.150;2022-12-07T08:22:20;10.80;;;2.83;;
72761;SDS011;60886;55.034;73.150;2022-12-07T08:24:46;12.20;;;3.55;;
72761;SDS011;60886;55.034;73.150;2022-12-07T08:27:13;12.93;;;2.92;;
72761;SDS011;60886;55.034;73.150;2022-12-07T08:29:39;9.03;;;2.97;;
72761;SDS011;60886;55.034;73.150;2022-12-07T08:32:05;9.18;;;2.63;;
72761;SDS011;60886;55.034;73.150;2022-12-07T08:34:31;14.50;;;3.30;;
72761;SDS011;60886;55.034;73.150;2022-12-07T08:36:58;15.10;;;2.97;;
72761;SDS011;60886;55.034;73.150;2022-12-07T08:39:24;6.07;;;1.88;;
72761;SDS011;60886;55.034;73.150;2022-12-07T08:41:50;9.23;;;2.57;;
72761;SDS011;60886;55.034;73.150;2022-12-07T08:44:18;10.10;;;2.90;;
72761;SDS011;60886;55.034;73.150;2022-12-07T08:46:57;11.70;;;2.75;;
72761;SDS011;60886;55.034;73.150;2022-12-07T08:49:27;13.80;;;3.20;;
72761;SDS011;60886;55.034;73.150;2022-12-07T08:51:59;14.60;;;3.80;;
72761;SDS011;60886;55.034;73.150;2022-12-07T08:54:25;17.10;;;4.20;;
72761;SDS011;60886;55.034;73.150;2022-12-07T08:56:54;15.10;;;4.40;;
72761;SDS011;60886;55.034;73.150;2022-12-07T08:59:26;21.27;;;4.78;;
72761;SDS011;60886;55.034;73.150;2022-12-07T09:01:54;16.33;;;4.13;;
72761;SDS011;60886;55.034;73.150;2022-12-07T09:04:27;15.52;;;3.60;;
72761;SDS011;60886;55.034;73.150;2022-12-07T09:06:54;16.07;;;3.17;;
72761;SDS011;60886;55.034;73.150;2022-12-07T09:09:21;9.45;;;2.85;;
72761;SDS011;60886;55.034;73.150;2022-12-07T09:11:47;15.63;;;2.97;;
72761;SDS011;60886;55.034;73.150;2022-12-07T09:14:14;11.95;;;3.33;;
72761;SDS011;60886;55.034;73.150;2022-12-07T09:16:41;9.80;;;2.67;;
72761;SDS011;60886;55.034;73.150;2022-12-07T09:19:14;10.03;;;3.00;;
72761;SDS011;60886;55.034;73.150;2022-12-07T09:21:42;11.40;;;2.97;;
72761;SDS011;60886;55.034;73.150;2022-12-07T09:24:08;14.15;;;3.35;;
72761;SDS011;60886;55.034;73.150;2022-12-07T09:26:35;16.05;;;2.92;;
72761;SDS011;60886;55.034;73.150;2022-12-07T09:29:02;15.20;;;3.15;;
72761;SDS011;60886;55.034;73.150;2022-12-07T09:31:28;15.13;;;2.97;;
72761;SDS011;60886;55.034;73.150;2022-12-07T09:33:55;18.13;;;3.90;;
72761;SDS011;60886;55.034;73.150;2022-12-07T09:36:23;13.88;;;3.72;;
72761;SDS011;60886;55.034;73.150;2022-12-07T09:38:51;15.98;;;4.13;;
72761;SDS011;60886;55.034;73.150;2022-12-07T09:41:17;12.80;;;3.35;;
72761;SDS011;60886;55.034;73.150;2022-12-07T09:43:56;15.60;;;3.83;;
72761;SDS011;60886;55.034;73.150;2022-12-07T09:46:28;14.10;;;4.18;;
72761;SDS011;60886;55.034;73.150;2022-12-07T09:48:58;15.00;;;3.50;;
72761;SDS011;60886;55.034;73.150;2022-12-07T09:51:25;16.17;;;3.60;;
72761;SDS011;60886;55.034;73.150;2022-12-07T09:53:53;12.80;;;3.53;;
72761;SDS011;60886;55.034;73.150;2022-12-07T09:56:25;11.00;;;3.33;;
72761;SDS011;60886;55.034;73.150;2022-12-07T09:58:59;13.40;;;3.33;;
72761;SDS011;60886;55.034;73.150;2022-12-07T10:01:29;15.85;;;2.83;;
72761;SDS011;60886;55.034;73.150;2022-12-07T10:06:42;15.43;;;3.20;;
72761;SDS011;60886;55.034;73.150;2022-12-07T10:09:09;14.23;;;4.47;;
72761;SDS011;60886;55.034;73.150;2022-12-07T10:11:58;15.63;;;4.70;;
72761;SDS011;60886;55.034;73.150;2022-12-07T10:14:30;15.82;;;3.83;;
72761;SDS011;60886;55.034;73.150;2022-12-07T10:22:37;16.20;;;5.00;;
72761;SDS011;60886;55.034;73.150;2022-12-07T10:25:08;18.88;;;3.95;;
72761;SDS011;60886;55.034;73.150;2022-12-07T10:30:55;19.40;;;3.80;;
72761;SDS011;60886;55.034;73.150;2022-12-07T10:33:35;12.85;;;4.43;;
72761;SDS011;60886;55.034;73.150;2022-12-07T10:36:16;17.40;;;3.83;;
72761;SDS011;60886;55.034;73.150;2022-12-07T10:39:13;16.98;;;4.32;;
72761;SDS011;60886;55.034;73.150;2022-12-07T10:41:53;25.35;;;4.40;;
72761;SDS011;60886;55.034;73.150;2022-12-07T10:44:28;11.93;;;4.35;;
72761;SDS011;60886;55.034;73.150;2022-12-07T10:52:45;18.48;;;5.28;;
72761;SDS011;60886;55.034;73.150;2022-12-07T10:57:57;16.45;;;5.45;;
72761;SDS011;60886;55.034;73.150;2022-12-07T11:06:44;16.42;;;4.70;;
72761;SDS011;60886;55.034;73.150;2022-12-07T11:15:10;15.82;;;5.47;;
72761;SDS011;60886;55.034;73.150;2022-12-07T11:23:44;20.08;;;6.13;;
72761;SDS011;60886;55.034;73.150;2022-12-07T11:29:34;13.02;;;4.90;;
72761;SDS011;60886;55.034;73.150;2022-12-07T11:37:36;17.80;;;5.32;;
72761;SDS011;60886;55.034;73.150;2022-12-07T11:40:15;15.60;;;4.28;;
72761;SDS011;60886;55.034;73.150;2022-12-07T11:42:58;17.20;;;4.90;;
72761;SDS011;60886;55.034;73.150;2022-12-07T11:45:29;13.77;;;4.27;;
72761;SDS011;60886;55.034;73.150;2022-12-07T11:50:52;13.13;;;4.57;;
72761;SDS011;60886;55.034;73.150;2022-12-07T11:53:25;19.17;;;5.80;;
72761;SDS011;60886;55.034;73.150;2022-12-07T11:55:59;22.20;;;7.97;;
72761;SDS011;60886;55.034;73.150;2022-12-07T12:06:48;25.30;;;7.97;;
72761;SDS011;60886;55.034;73.150;2022-12-07T12:09:26;20.42;;;7.88;;
72761;SDS011;60886;55.034;73.150;2022-12-07T12:26:17;20.90;;;6.73;;
72761;SDS011;60886;55.034;73.150;2022-12-07T12:28:28;22.70;;;7.75;;
72761;SDS011;60886;55.034;73.150;2022-12-07T12:31:06;21.00;;;6.85;;
72761;SDS011;60886;55.034;73.150;2022-12-07T12:34:30;20.40;;;6.57;;
72761;SDS011;60886;55.034;73.150;2022-12-07T12:42:56;18.60;;;6.82;;
72761;SDS011;60886;55.034;73.150;2022-12-07T12:45:28;19.17;;;6.68;;
72761;SDS011;60886;55.034;73.150;2022-12-07T12:50:37;20.27;;;6.18;;
72761;SDS011;60886;55.034;73.150;2022-12-07T12:53:20;29.63;;;7.73;;
72761;SDS011;60886;55.034;73.150;2022-12-07T13:15:50;21.13;;;6.85;;
72761;SDS011;60886;55.034;73.150;2022-12-07T13:20:56;27.70;;;9.90;;
72761;SDS011;60886;55.034;73.150;2022-12-07T13:23:36;25.63;;;9.43;;
72761;SDS011;60886;55.034;73.150;2022-12-07T13:26:39;26.27;;;10.15;;
72761;SDS011;60886;55.034;73.150;2022-12-07T13:29:24;23.42;;;8.55;;
72761;SDS011;60886;55.034;73.150;2022-12-07T13:31:52;22.40;;;9.13;;
72761;SDS011;60886;55.034;73.150;2022-12-07T13:37:12;23.67;;;9.77;;
72761;SDS011;60886;55.034;73.150;2022-12-07T13:39:49;25.05;;;9.23;;
72761;SDS011;60886;55.034;73.150;2022-12-07T13:42:27;21.27;;;8.52;;
72761;SDS011;60886;55.034;73.150;2022-12-07T13:44:59;19.27;;;8.63;;
72761;SDS011;60886;55.034;73.150;2022-12-07T13:50:25;29.50;;;10.07;;
72761;SDS011;60886;55.034;73.150;2022-12-07T13:53:18;33.72;;;12.45;;
72761;SDS011;60886;55.034;73.150;2022-12-07T13:55:45;26.30;;;11.70;;
72761;SDS011;60886;55.034;73.150;2022-12-07T13:58:21;30.02;;;12.45;;
72761;SDS011;60886;55.034;73.150;2022-12-07T14:00:50;26.17;;;10.70;;
72761;SDS011;60886;55.034;73.150;2022-12-07T14:05:44;30.48;;;11.13;;
72761;SDS011;60886;55.034;73.150;2022-12-07T14:08:29;26.70;;;10.30;;
72761;SDS011;60886;55.034;73.150;2022-12-07T14:10:57;28.67;;;11.77;;
72761;SDS011;60886;55.034;73.150;2022-12-07T14:13:36;37.73;;;12.20;;
72761;SDS011;60886;55.034;73.150;2022-12-07T14:22:23;27.42;;;11.48;;
72761;SDS011;60886;55.034;73.150;2022-12-07T14:25:17;33.75;;;11.90;;
72761;SDS011;60886;55.034;73.150;2022-12-07T14:30:23;35.67;;;13.23;;
72761;SDS011;60886;55.034;73.150;2022-12-07T14:32:55;37.60;;;13.68;;
72761;SDS011;60886;55.034;73.150;2022-12-07T14:35:28;55.10;;;16.33;;
72761;SDS011;60886;55.034;73.150;2022-12-07T14:37:55;58.35;;;20.83;;
72761;SDS011;60886;55.034;73.150;2022-12-07T14:40:26;59.00;;;20.87;;
72761;SDS011;60886;55.034;73.150;2022-12-07T14:43:12;36.42;;;14.43;;
72761;SDS011;60886;55.034;73.150;2022-12-07T14:45:47;25.58;;;12.00;;
72761;SDS011;60886;55.034;73.150;2022-12-07T14:48:14;31.63;;;12.98;;
72761;SDS011;60886;55.034;73.150;2022-12-07T14:50:49;32.13;;;14.18;;
72761;SDS011;60886;55.034;73.150;2022-12-07T14:53:18;25.57;;;11.43;;
72761;SDS011;60886;55.034;73.150;2022-12-07T14:55:56;35.65;;;12.52;;
72761;SDS011;60886;55.034;73.150;2022-12-07T14:58:29;33.97;;;12.27;;
72761;SDS011;60886;55.034;73.150;2022-12-07T15:01:03;26.50;;;10.15;;
72761;SDS011;60886;55.034;73.150;2022-12-07T15:03:29;29.38;;;11.43;;
72761;SDS011;60886;55.034;73.150;2022-12-07T15:05:56;35.97;;;12.60;;
72761;SDS011;60886;55.034;73.150;2022-12-07T15:08:24;27.92;;;11.50;;
72761;SDS011;60886;55.034;73.150;2022-12-07T15:10:52;36.03;;;11.30;;
72761;SDS011;60886;55.034;73.150;2022-12-07T15:13:28;37.83;;;11.77;;
72761;SDS011;60886;55.034;73.150;2022-12-07T15:16:24;25.10;;;10.82;;
72761;SDS011;60886;55.034;73.150;2022-12-07T15:18:52;27.03;;;11.80;;
72761;SDS011;60886;55.034;73.150;2022-12-07T15:21:23;29.58;;;9.75;;
72761;SDS011;60886;55.034;73.150;2022-12-07T15:23:49;28.05;;;11.35;;
72761;SDS011;60886;55.034;73.150;2022-12-07T15:26:16;29.58;;;10.25;;
72761;SDS011;60886;55.034;73.150;2022-12-07T15:28:44;27.45;;;11.35;;
72761;SDS011;60886;55.034;73.150;2022-12-07T15:31:14;29.87;;;11.57;;
72761;SDS011;60886;55.034;73.150;2022-12-07T15:33:44;28.13;;;10.48;;
72761;SDS011;60886;55.034;73.150;2022-12-07T15:36:18;31.00;;;10.80;;
72761;SDS011;60886;55.034;73.150;2022-12-07T15:38:57;27.77;;;11.05;;
72761;SDS011;60886;55.034;73.150;2022-12-07T15:41:34;30.58;;;10.00;;
72761;SDS011;60886;55.034;73.150;2022-12-07T15:44:01;28.10;;;10.57;;
72761;SDS011;60886;55.034;73.150;2022-12-07T15:46:56;35.72;;;12.15;;
72761;SDS011;60886;55.034;73.150;2022-12-07T15:49:23;23.50;;;8.73;;
72761;SDS011;60886;55.034;73.150;2022-12-07T15:51:50;31.35;;;11.40;;
72761;SDS011;60886;55.034;73.150;2022-12-07T15:54:21;25.08;;;9.60;;
72761;SDS011;60886;55.034;73.150;2022-12-07T15:56:54;29.50;;;11.27;;
72761;SDS011;60886;55.034;73.150;2022-12-07T15:59:21;27.65;;;10.35;;
72761;SDS011;60886;55.034;73.150;2022-12-07T16:01:53;30.75;;;11.27;;
72761;SDS011;60886;55.034;73.150;2022-12-07T16:04:21;27.85;;;11.52;;
72761;SDS011;60886;55.034;73.150;2022-12-07T16:06:47;29.63;;;10.48;;
72761;SDS011;60886;55.034;73.150;2022-12-07T16:09:13;28.43;;;9.17;;
72761;SDS011;60886;55.034;73.150;2022-12-07T16:11:45;19.73;;;9.32;;
72761;SDS011;60886;55.034;73.150;2022-12-07T16:14:11;25.80;;;9.98;;
72761;SDS011;60886;55.034;73.150;2022-12-07T16:16:38;24.60;;;9.10;;
72761;SDS011;60886;55.034;73.150;2022-12-07T16:19:11;24.42;;;9.52;;
72761;SDS011;60886;55.034;73.150;2022-12-07T16:21:37;31.20;;;10.30;;
72761;SDS011;60886;55.034;73.150;2022-12-07T16:24:05;34.28;;;9.65;;
72761;SDS011;60886;55.034;73.150;2022-12-07T16:26:33;29.80;;;9.82;;
72761;SDS011;60886;55.034;73.150;2022-12-07T16:29:05;23.40;;;8.32;;
72761;SDS011;60886;55.034;73.150;2022-12-07T16:31:42;26.88;;;9.32;;
72761;SDS011;60886;55.034;73.150;2022-12-07T16:34:10;18.63;;;8.47;;
72761;SDS011;60886;55.034;73.150;2022-12-07T16:36:46;24.30;;;8.23;;
72761;SDS011;60886;55.034;73.150;2022-12-07T16:39:13;22.73;;;7.97;;
72761;SDS011;60886;55.034;73.150;2022-12-07T16:41:40;28.05;;;8.68;;
72761;SDS011;60886;55.034;73.150;2022-12-07T16:44:07;19.25;;;7.35;;
72761;SDS011;60886;55.034;73.150;2022-12-07T16:46:39;15.77;;;6.37;;
72761;SDS011;60886;55.034;73.150;2022-12-07T16:49:11;18.75;;;8.10;;
72761;SDS011;60886;55.034;73.150;2022-12-07T16:51:51;22.80;;;9.18;;
72761;SDS011;60886;55.034;73.150;2022-12-07T16:54:18;23.38;;;7.68;;
72761;SDS011;60886;55.034;73.150;2022-12-07T16:56:44;21.52;;;6.78;;
72761;SDS011;60886;55.034;73.150;2022-12-07T16:59:20;28.83;;;7.67;;
72761;SDS011;60886;55.034;73.150;2022-12-07T17:01:46;16.50;;;5.28;;
72761;SDS011;60886;55.034;73.150;2022-12-07T17:04:14;15.35;;;7.45;;
72761;SDS011;60886;55.034;73.150;2022-12-07T17:06:40;21.08;;;7.35;;
72761;SDS011;60886;55.034;73.150;2022-12-07T17:09:17;21.15;;;7.10;;
72761;SDS011;60886;55.034;73.150;2022-12-07T17:11:43;25.30;;;5.97;;
72761;SDS011;60886;55.034;73.150;2022-12-07T17:14:12;20.88;;;7.50;;
72761;SDS011;60886;55.034;73.150;2022-12-07T17:16:57;22.27;;;6.38;;
72761;SDS011;60886;55.034;73.150;2022-12-07T17:19:28;15.07;;;6.65;;
72761;SDS011;60886;55.034;73.150;2022-12-07T17:21:54;14.55;;;5.72;;
72761;SDS011;60886;55.034;73.150;2022-12-07T17:24:21;20.17;;;11.53;;
72761;SDS011;60886;55.034;73.150;2022-12-07T17:26:47;15.98;;;5.85;;
72761;SDS011;60886;55.034;73.150;2022-12-07T17:29:15;24.58;;;8.27;;
72761;SDS011;60886;55.034;73.150;2022-12-07T17:31:42;11.73;;;4.78;;